sensor_id;sensor_type;location;lat;lon;timestamp;P1;durP1;ratioP1;P2;durP2;ratioP2
25922;SDS011;13725;51.170;4.442;2024-01-15T00:00:41;10.00;;;5.20;;
25922;SDS011;13725;51.170;4.442;2024-01-15T00:03:08;13.25;;;5.32;;
25922;SDS011;13725;51.170;4.442;2024-01-15T00:05:35;16.05;;;6.55;;
25922;SDS011;13725;51.170;4.442;2024-01-15T00:08:00;16.20;;;5.90;;
25922;SDS011;13725;51.170;4.442;2024-01-15T00:10:27;22.63;;;7.93;;
25922;SDS011;13725;51.170;4.442;2024-01-15T00:12:55;17.58;;;7.03;;
25922;SDS011;13725;51.170;4.442;2024-01-15T00:15:21;14.13;;;5.05;;
25922;SDS011;13725;51.170;4.442;2024-01-15T00:17:47;12.95;;;3.50;;
25922;SDS011;13725;51.170;4.442;2024-01-15T00:20:13;10.63;;;3.17;;
25922;SDS011;13725;51.170;4.442;2024-01-15T00:22:40;9.52;;;3.40;;
25922;SDS011;13725;51.170;4.442;2024-01-15T00:25:05;7.22;;;2.80;;
25922;SDS011;13725;51.170;4.442;2024-01-15T00:27:31;4.35;;;2.00;;
25922;SDS011;13725;51.170;4.442;2024-01-15T00:29:57;2.50;;;1.17;;
25922;SDS011;13725;51.170;4.442;2024-01-15T00:32:24;4.18;;;0.85;;
25922;SDS011;13725;51.170;4.442;2024-01-15T00:34:50;2.92;;;0.90;;
25922;SDS011;13725;51.170;4.442;2024-01-15T00:37:16;4.03;;;0.55;;
25922;SDS011;13725;51.170;4.442;2024-01-15T00:39:42;3.55;;;0.40;;
25922;SDS011;13725;51.170;4.442;2024-01-15T00:42:08;1.30;;;0.60;;
25922;SDS011;13725;51.170;4.442;2024-01-15T00:44:35;0.85;;;0.70;;
25922;SDS011;13725;51.170;4.442;2024-01-15T00:47:01;2.92;;;0.73;;
25922;SDS011;13725;51.170;4.442;2024-01-15T00:49:27;1.70;;;0.60;;
25922;SDS011;13725;51.170;4.442;2024-01-15T00:51:52;2.53;;;0.77;;
25922;SDS011;13725;51.170;4.442;2024-01-15T00:54:19;12.05;;;0.88;;
25922;SDS011;13725;51.170;4.442;2024-01-15T00:56:45;3.78;;;0.93;;
25922;SDS011;13725;51.170;4.442;2024-01-15T00:59:11;6.38;;;0.80;;
25922;SDS011;13725;51.170;4.442;2024-01-15T01:01:40;2.40;;;0.52;;
25922;SDS011;13725;51.170;4.442;2024-01-15T01:04:08;4.07;;;1.00;;
25922;SDS011;13725;51.170;4.442;2024-01-15T01:06:34;6.40;;;1.05;;
25922;SDS011;13725;51.170;4.442;2024-01-15T01:09:00;3.20;;;0.80;;
25922;SDS011;13725;51.170;4.442;2024-01-15T01:11:26;2.92;;;0.52;;
25922;SDS011;13725;51.170;4.442;2024-01-15T01:13:52;6.32;;;0.82;;
25922;SDS011;13725;51.170;4.442;2024-01-15T01:16:17;4.47;;;0.88;;
25922;SDS011;13725;51.170;4.442;2024-01-15T01:18:43;3.28;;;1.23;;
25922;SDS011;13725;51.170;4.442;2024-01-15T01:21:09;12.32;;;2.13;;
25922;SDS011;13725;51.170;4.442;2024-01-15T01:23:35;11.95;;;3.65;;
25922;SDS011;13725;51.170;4.442;2024-01-15T01:26:02;14.90;;;4.60;;
25922;SDS011;13725;51.170;4.442;2024-01-15T01:28:31;12.27;;;3.92;;
25922;SDS011;13725;51.170;4.442;2024-01-15T01:30:57;26.98;;;11.05;;
25922;SDS011;13725;51.170;4.442;2024-01-15T01:33:23;28.27;;;11.73;;
25922;SDS011;13725;51.170;4.442;2024-01-15T01:35:49;25.55;;;11.20;;
25922;SDS011;13725;51.170;4.442;2024-01-15T01:38:14;23.02;;;8.35;;
25922;SDS011;13725;51.170;4.442;2024-01-15T01:40:40;22.67;;;8.77;;
25922;SDS011;13725;51.170;4.442;2024-01-15T01:43:06;19.20;;;8.48;;
25922;SDS011;13725;51.170;4.442;2024-01-15T01:45:35;25.85;;;9.77;;
25922;SDS011;13725;51.170;4.442;2024-01-15T01:48:00;20.10;;;9.68;;
25922;SDS011;13725;51.170;4.442;2024-01-15T01:50:29;24.77;;;8.10;;
25922;SDS011;13725;51.170;4.442;2024-01-15T01:53:05;15.98;;;7.25;;
25922;SDS011;13725;51.170;4.442;2024-01-15T01:55:31;16.13;;;7.05;;
25922;SDS011;13725;51.170;4.442;2024-01-15T01:57:58;18.33;;;6.38;;
25922;SDS011;13725;51.170;4.442;2024-01-15T02:00:25;16.45;;;5.43;;
25922;SDS011;13725;51.170;4.442;2024-01-15T02:02:51;12.02;;;5.40;;
25922;SDS011;13725;51.170;4.442;2024-01-15T02:05:18;13.30;;;5.75;;
25922;SDS011;13725;51.170;4.442;2024-01-15T02:07:45;16.65;;;6.20;;
25922;SDS011;13725;51.170;4.442;2024-01-15T02:10:11;14.20;;;6.95;;
25922;SDS011;13725;51.170;4.442;2024-01-15T02:12:37;16.45;;;6.43;;
25922;SDS011;13725;51.170;4.442;2024-01-15T02:15:03;13.27;;;5.90;;
25922;SDS011;13725;51.170;4.442;2024-01-15T02:17:29;14.40;;;6.22;;
25922;SDS011;13725;51.170;4.442;2024-01-15T02:19:55;15.05;;;5.80;;
25922;SDS011;13725;51.170;4.442;2024-01-15T02:22:21;15.88;;;6.28;;
25922;SDS011;13725;51.170;4.442;2024-01-15T02:24:46;13.88;;;4.80;;
25922;SDS011;13725;51.170;4.442;2024-01-15T02:27:13;17.73;;;4.75;;
25922;SDS011;13725;51.170;4.442;2024-01-15T02:29:39;9.65;;;4.28;;
25922;SDS011;13725;51.170;4.442;2024-01-15T02:32:06;10.18;;;3.88;;
25922;SDS011;13725;51.170;4.442;2024-01-15T02:34:34;10.23;;;3.60;;
25922;SDS011;13725;51.170;4.442;2024-01-15T02:37:00;6.93;;;3.38;;
25922;SDS011;13725;51.170;4.442;2024-01-15T02:39:26;13.38;;;3.50;;
25922;SDS011;13725;51.170;4.442;2024-01-15T02:41:54;9.07;;;3.47;;
25922;SDS011;13725;51.170;4.442;2024-01-15T02:44:22;7.85;;;3.08;;
25922;SDS011;13725;51.170;4.442;2024-01-15T02:46:48;9.48;;;3.20;;
25922;SDS011;13725;51.170;4.442;2024-01-15T02:49:14;8.48;;;2.83;;
25922;SDS011;13725;51.170;4.442;2024-01-15T02:51:39;11.93;;;4.30;;
25922;SDS011;13725;51.170;4.442;2024-01-15T02:54:05;9.68;;;4.40;;
25922;SDS011;13725;51.170;4.442;2024-01-15T02:56:31;10.75;;;3.55;;
25922;SDS011;13725;51.170;4.442;2024-01-15T02:58:56;12.48;;;3.25;;
25922;SDS011;13725;51.170;4.442;2024-01-15T03:01:22;13.93;;;3.10;;
25922;SDS011;13725;51.170;4.442;2024-01-15T03:03:48;9.55;;;2.45;;
25922;SDS011;13725;51.170;4.442;2024-01-15T03:06:15;9.23;;;1.77;;
25922;SDS011;13725;51.170;4.442;2024-01-15T03:08:40;10.18;;;2.65;;
25922;SDS011;13725;51.170;4.442;2024-01-15T03:11:06;8.35;;;2.08;;
25922;SDS011;13725;51.170;4.442;2024-01-15T03:13:35;14.60;;;1.95;;
25922;SDS011;13725;51.170;4.442;2024-01-15T03:16:01;14.93;;;2.42;;
25922;SDS011;13725;51.170;4.442;2024-01-15T03:18:29;18.10;;;1.98;;
25922;SDS011;13725;51.170;4.442;2024-01-15T03:20:55;10.65;;;1.80;;
25922;SDS011;13725;51.170;4.442;2024-01-15T03:23:20;7.50;;;1.85;;
25922;SDS011;13725;51.170;4.442;2024-01-15T03:25:46;13.30;;;2.55;;
25922;SDS011;13725;51.170;4.442;2024-01-15T03:28:12;4.47;;;1.13;;
25922;SDS011;13725;51.170;4.442;2024-01-15T03:30:38;8.40;;;1.55;;
25922;SDS011;13725;51.170;4.442;2024-01-15T03:33:04;9.63;;;1.75;;
25922;SDS011;13725;51.170;4.442;2024-01-15T03:35:34;14.50;;;1.75;;
25922;SDS011;13725;51.170;4.442;2024-01-15T03:38:00;10.38;;;2.08;;
25922;SDS011;13725;51.170;4.442;2024-01-15T03:40:28;6.90;;;1.70;;
25922;SDS011;13725;51.170;4.442;2024-01-15T03:42:53;12.00;;;1.38;;
25922;SDS011;13725;51.170;4.442;2024-01-15T03:45:19;15.05;;;1.85;;
25922;SDS011;13725;51.170;4.442;2024-01-15T03:47:45;10.23;;;2.42;;
25922;SDS011;13725;51.170;4.442;2024-01-15T03:50:10;8.25;;;2.15;;
25922;SDS011;13725;51.170;4.442;2024-01-15T03:52:36;5.68;;;2.05;;
25922;SDS011;13725;51.170;4.442;2024-01-15T03:55:03;10.10;;;2.83;;
25922;SDS011;13725;51.170;4.442;2024-01-15T03:57:30;11.68;;;2.72;;
25922;SDS011;13725;51.170;4.442;2024-01-15T03:59:55;12.18;;;3.33;;
25922;SDS011;13725;51.170;4.442;2024-01-15T04:02:22;12.90;;;3.80;;
25922;SDS011;13725;51.170;4.442;2024-01-15T04:04:48;12.68;;;3.70;;
25922;SDS011;13725;51.170;4.442;2024-01-15T04:07:13;14.95;;;4.32;;
25922;SDS011;13725;51.170;4.442;2024-01-15T04:09:39;10.68;;;3.47;;
25922;SDS011;13725;51.170;4.442;2024-01-15T04:12:05;8.25;;;3.75;;
25922;SDS011;13725;51.170;4.442;2024-01-15T04:14:31;11.48;;;4.45;;
25922;SDS011;13725;51.170;4.442;2024-01-15T04:16:57;14.32;;;4.45;;
25922;SDS011;13725;51.170;4.442;2024-01-15T04:19:23;18.02;;;4.97;;
25922;SDS011;13725;51.170;4.442;2024-01-15T04:21:48;15.40;;;4.68;;
25922;SDS011;13725;51.170;4.442;2024-01-15T04:24:14;13.25;;;4.53;;
25922;SDS011;13725;51.170;4.442;2024-01-15T04:26:42;10.55;;;4.15;;
25922;SDS011;13725;51.170;4.442;2024-01-15T04:29:08;14.38;;;5.22;;
25922;SDS011;13725;51.170;4.442;2024-01-15T04:31:34;13.43;;;5.30;;
25922;SDS011;13725;51.170;4.442;2024-01-15T04:34:00;17.90;;;5.50;;
25922;SDS011;13725;51.170;4.442;2024-01-15T04:36:25;21.58;;;6.13;;
25922;SDS011;13725;51.170;4.442;2024-01-15T04:38:51;14.48;;;5.07;;
25922;SDS011;13725;51.170;4.442;2024-01-15T04:41:17;26.05;;;6.20;;
25922;SDS011;13725;51.170;4.442;2024-01-15T04:43:43;15.55;;;4.70;;
25922;SDS011;13725;51.170;4.442;2024-01-15T04:46:09;11.80;;;4.55;;
25922;SDS011;13725;51.170;4.442;2024-01-15T04:48:34;13.93;;;5.18;;
25922;SDS011;13725;51.170;4.442;2024-01-15T04:51:00;14.85;;;4.78;;
25922;SDS011;13725;51.170;4.442;2024-01-15T04:53:28;11.23;;;5.45;;
25922;SDS011;13725;51.170;4.442;2024-01-15T04:55:54;12.70;;;4.80;;
25922;SDS011;13725;51.170;4.442;2024-01-15T04:58:20;18.95;;;4.38;;
25922;SDS011;13725;51.170;4.442;2024-01-15T05:00:46;18.15;;;4.72;;
25922;SDS011;13725;51.170;4.442;2024-01-15T05:03:13;11.82;;;4.70;;
25922;SDS011;13725;51.170;4.442;2024-01-15T05:05:39;11.52;;;3.85;;
25922;SDS011;13725;51.170;4.442;2024-01-15T05:08:05;8.32;;;4.05;;
25922;SDS011;13725;51.170;4.442;2024-01-15T05:10:31;16.58;;;4.32;;
25922;SDS011;13725;51.170;4.442;2024-01-15T05:12:56;12.13;;;4.47;;
25922;SDS011;13725;51.170;4.442;2024-01-15T05:15:24;11.35;;;4.50;;
25922;SDS011;13725;51.170;4.442;2024-01-15T05:17:50;12.50;;;4.05;;
25922;SDS011;13725;51.170;4.442;2024-01-15T05:20:16;13.32;;;4.65;;
25922;SDS011;13725;51.170;4.442;2024-01-15T05:22:41;12.38;;;5.22;;
25922;SDS011;13725;51.170;4.442;2024-01-15T05:25:07;9.73;;;4.32;;
25922;SDS011;13725;51.170;4.442;2024-01-15T05:27:33;17.65;;;4.72;;
25922;SDS011;13725;51.170;4.442;2024-01-15T05:29:59;19.70;;;5.20;;
25922;SDS011;13725;51.170;4.442;2024-01-15T05:32:24;15.70;;;5.32;;
25922;SDS011;13725;51.170;4.442;2024-01-15T05:34:50;18.70;;;5.82;;
25922;SDS011;13725;51.170;4.442;2024-01-15T05:37:16;18.38;;;5.75;;
25922;SDS011;13725;51.170;4.442;2024-01-15T05:39:42;11.32;;;5.07;;
25922;SDS011;13725;51.170;4.442;2024-01-15T05:42:08;9.90;;;4.10;;
25922;SDS011;13725;51.170;4.442;2024-01-15T05:44:33;8.70;;;3.92;;
25922;SDS011;13725;51.170;4.442;2024-01-15T05:46:59;7.88;;;3.25;;
25922;SDS011;13725;51.170;4.442;2024-01-15T05:49:25;13.77;;;4.03;;
25922;SDS011;13725;51.170;4.442;2024-01-15T05:51:50;12.85;;;3.90;;
25922;SDS011;13725;51.170;4.442;2024-01-15T05:54:17;12.30;;;3.63;;
25922;SDS011;13725;51.170;4.442;2024-01-15T05:56:44;17.50;;;3.92;;
25922;SDS011;13725;51.170;4.442;2024-01-15T05:59:10;10.38;;;3.30;;
25922;SDS011;13725;51.170;4.442;2024-01-15T06:01:37;16.58;;;3.67;;
25922;SDS011;13725;51.170;4.442;2024-01-15T06:04:03;10.32;;;3.47;;
25922;SDS011;13725;51.170;4.442;2024-01-15T06:06:28;9.88;;;3.28;;
25922;SDS011;13725;51.170;4.442;2024-01-15T06:08:54;8.32;;;2.50;;
25922;SDS011;13725;51.170;4.442;2024-01-15T06:11:20;10.73;;;3.38;;
25922;SDS011;13725;51.170;4.442;2024-01-15T06:13:46;9.63;;;3.80;;
25922;SDS011;13725;51.170;4.442;2024-01-15T06:16:15;7.68;;;3.45;;
25922;SDS011;13725;51.170;4.442;2024-01-15T06:18:42;12.82;;;2.97;;
25922;SDS011;13725;51.170;4.442;2024-01-15T06:21:09;13.48;;;3.63;;
25922;SDS011;13725;51.170;4.442;2024-01-15T06:23:37;9.52;;;3.05;;
25922;SDS011;13725;51.170;4.442;2024-01-15T06:26:04;16.70;;;3.72;;
25922;SDS011;13725;51.170;4.442;2024-01-15T06:28:30;9.73;;;2.92;;
25922;SDS011;13725;51.170;4.442;2024-01-15T06:30:56;13.93;;;3.50;;
25922;SDS011;13725;51.170;4.442;2024-01-15T06:33:23;16.38;;;3.15;;
25922;SDS011;13725;51.170;4.442;2024-01-15T06:35:48;11.55;;;2.83;;
25922;SDS011;13725;51.170;4.442;2024-01-15T06:38:15;12.85;;;2.90;;
25922;SDS011;13725;51.170;4.442;2024-01-15T06:40:41;16.10;;;3.20;;
25922;SDS011;13725;51.170;4.442;2024-01-15T06:43:17;10.27;;;3.35;;
25922;SDS011;13725;51.170;4.442;2024-01-15T06:45:43;13.07;;;2.75;;
25922;SDS011;13725;51.170;4.442;2024-01-15T06:48:09;8.40;;;2.75;;
25922;SDS011;13725;51.170;4.442;2024-01-15T06:50:39;22.25;;;3.03;;
25922;SDS011;13725;51.170;4.442;2024-01-15T06:53:05;15.77;;;3.40;;
25922;SDS011;13725;51.170;4.442;2024-01-15T06:55:31;9.60;;;2.55;;
25922;SDS011;13725;51.170;4.442;2024-01-15T06:57:58;7.63;;;2.58;;
25922;SDS011;13725;51.170;4.442;2024-01-15T07:00:26;8.68;;;2.85;;
25922;SDS011;13725;51.170;4.442;2024-01-15T07:02:53;5.78;;;2.35;;
25922;SDS011;13725;51.170;4.442;2024-01-15T07:05:20;9.38;;;2.50;;
25922;SDS011;13725;51.170;4.442;2024-01-15T07:07:46;11.93;;;2.88;;
25922;SDS011;13725;51.170;4.442;2024-01-15T07:10:12;17.90;;;2.60;;
25922;SDS011;13725;51.170;4.442;2024-01-15T07:12:38;17.48;;;2.78;;
25922;SDS011;13725;51.170;4.442;2024-01-15T07:15:06;17.95;;;3.08;;
25922;SDS011;13725;51.170;4.442;2024-01-15T07:17:33;11.05;;;2.65;;
25922;SDS011;13725;51.170;4.442;2024-01-15T07:20:00;10.75;;;2.55;;
25922;SDS011;13725;51.170;4.442;2024-01-15T07:22:27;21.23;;;3.10;;
25922;SDS011;13725;51.170;4.442;2024-01-15T07:24:52;9.70;;;2.45;;
25922;SDS011;13725;51.170;4.442;2024-01-15T07:27:19;16.00;;;2.42;;
25922;SDS011;13725;51.170;4.442;2024-01-15T07:29:45;7.90;;;2.10;;
25922;SDS011;13725;51.170;4.442;2024-01-15T07:32:15;14.20;;;2.30;;
25922;SDS011;13725;51.170;4.442;2024-01-15T07:34:45;12.70;;;2.45;;
25922;SDS011;13725;51.170;4.442;2024-01-15T07:37:11;5.82;;;2.45;;
25922;SDS011;13725;51.170;4.442;2024-01-15T07:39:37;5.70;;;2.53;;
25922;SDS011;13725;51.170;4.442;2024-01-15T07:42:03;12.05;;;2.95;;
25922;SDS011;13725;51.170;4.442;2024-01-15T07:44:29;12.32;;;2.90;;
25922;SDS011;13725;51.170;4.442;2024-01-15T07:46:55;4.97;;;2.30;;
25922;SDS011;13725;51.170;4.442;2024-01-15T07:49:21;11.32;;;2.38;;
25922;SDS011;13725;51.170;4.442;2024-01-15T07:51:48;8.15;;;2.67;;
25922;SDS011;13725;51.170;4.442;2024-01-15T07:54:14;13.63;;;2.97;;
25922;SDS011;13725;51.170;4.442;2024-01-15T07:59:30;10.40;;;2.13;;
25922;SDS011;13725;51.170;4.442;2024-01-15T08:01:57;10.07;;;2.83;;
25922;SDS011;13725;51.170;4.442;2024-01-15T08:04:25;6.78;;;2.10;;
25922;SDS011;13725;51.170;4.442;2024-01-15T08:06:51;7.63;;;1.80;;
25922;SDS011;13725;51.170;4.442;2024-01-15T08:09:16;8.30;;;2.03;;
25922;SDS011;13725;51.170;4.442;2024-01-15T08:11:42;9.95;;;2.38;;
25922;SDS011;13725;51.170;4.442;2024-01-15T08:14:09;9.35;;;2.08;;
25922;SDS011;13725;51.170;4.442;2024-01-15T08:16:38;8.95;;;2.55;;
25922;SDS011;13725;51.170;4.442;2024-01-15T08:19:04;11.85;;;2.33;;
25922;SDS011;13725;51.170;4.442;2024-01-15T08:21:30;20.67;;;3.28;;
25922;SDS011;13725;51.170;4.442;2024-01-15T08:23:57;8.25;;;2.85;;
25922;SDS011;13725;51.170;4.442;2024-01-15T08:26:28;10.68;;;2.45;;
25922;SDS011;13725;51.170;4.442;2024-01-15T08:28:55;7.65;;;1.90;;
25922;SDS011;13725;51.170;4.442;2024-01-15T08:31:22;6.68;;;1.48;;
25922;SDS011;13725;51.170;4.442;2024-01-15T08:33:48;14.95;;;1.92;;
25922;SDS011;13725;51.170;4.442;2024-01-15T08:36:14;9.60;;;1.42;;
25922;SDS011;13725;51.170;4.442;2024-01-15T08:38:41;12.30;;;2.90;;
25922;SDS011;13725;51.170;4.442;2024-01-15T08:41:06;8.57;;;1.58;;
25922;SDS011;13725;51.170;4.442;2024-01-15T08:43:33;6.00;;;1.77;;
25922;SDS011;13725;51.170;4.442;2024-01-15T08:46:00;11.88;;;2.22;;
25922;SDS011;13725;51.170;4.442;2024-01-15T08:48:26;8.68;;;1.90;;
25922;SDS011;13725;51.170;4.442;2024-01-15T08:50:54;7.03;;;1.90;;
25922;SDS011;13725;51.170;4.442;2024-01-15T08:53:21;16.15;;;1.77;;
25922;SDS011;13725;51.170;4.442;2024-01-15T08:55:47;6.30;;;1.88;;
25922;SDS011;13725;51.170;4.442;2024-01-15T08:58:13;9.68;;;1.30;;
25922;SDS011;13725;51.170;4.442;2024-01-15T09:00:39;11.57;;;1.83;;
25922;SDS011;13725;51.170;4.442;2024-01-15T09:03:05;12.65;;;1.73;;
25922;SDS011;13725;51.170;4.442;2024-01-15T09:05:31;7.45;;;1.55;;
25922;SDS011;13725;51.170;4.442;2024-01-15T09:07:57;12.82;;;2.00;;
25922;SDS011;13725;51.170;4.442;2024-01-15T09:10:22;10.93;;;1.13;;
25922;SDS011;13725;51.170;4.442;2024-01-15T09:12:49;8.30;;;1.67;;
25922;SDS011;13725;51.170;4.442;2024-01-15T09:15:15;12.63;;;1.77;;
25922;SDS011;13725;51.170;4.442;2024-01-15T09:17:42;12.18;;;1.90;;
25922;SDS011;13725;51.170;4.442;2024-01-15T09:20:10;10.00;;;1.73;;
25922;SDS011;13725;51.170;4.442;2024-01-15T09:22:39;9.45;;;2.05;;
25922;SDS011;13725;51.170;4.442;2024-01-15T09:25:08;10.52;;;1.92;;
25922;SDS011;13725;51.170;4.442;2024-01-15T09:27:35;9.30;;;1.70;;
25922;SDS011;13725;51.170;4.442;2024-01-15T09:30:01;12.65;;;2.08;;
25922;SDS011;13725;51.170;4.442;2024-01-15T09:32:28;10.38;;;1.90;;
25922;SDS011;13725;51.170;4.442;2024-01-15T09:34:53;7.85;;;2.13;;
25922;SDS011;13725;51.170;4.442;2024-01-15T09:37:20;10.73;;;2.20;;
25922;SDS011;13725;51.170;4.442;2024-01-15T09:39:46;11.20;;;2.55;;
25922;SDS011;13725;51.170;4.442;2024-01-15T09:42:13;14.98;;;1.90;;
25922;SDS011;13725;51.170;4.442;2024-01-15T09:44:40;5.88;;;1.65;;
25922;SDS011;13725;51.170;4.442;2024-01-15T09:47:06;9.10;;;2.08;;
25922;SDS011;13725;51.170;4.442;2024-01-15T09:49:32;10.68;;;1.90;;
25922;SDS011;13725;51.170;4.442;2024-01-15T09:51:58;11.65;;;2.17;;
25922;SDS011;13725;51.170;4.442;2024-01-15T09:54:26;5.38;;;1.80;;
25922;SDS011;13725;51.170;4.442;2024-01-15T09:56:52;8.32;;;1.70;;
25922;SDS011;13725;51.170;4.442;2024-01-15T09:59:19;7.93;;;1.98;;
25922;SDS011;13725;51.170;4.442;2024-01-15T10:01:47;7.50;;;1.73;;
25922;SDS011;13725;51.170;4.442;2024-01-15T10:04:16;8.15;;;2.15;;
25922;SDS011;13725;51.170;4.442;2024-01-15T10:06:46;5.95;;;2.00;;
25922;SDS011;13725;51.170;4.442;2024-01-15T10:09:13;7.75;;;3.05;;
25922;SDS011;13725;51.170;4.442;2024-01-15T10:11:42;11.02;;;2.00;;
25922;SDS011;13725;51.170;4.442;2024-01-15T10:14:12;12.93;;;2.17;;
25922;SDS011;13725;51.170;4.442;2024-01-15T10:16:38;10.07;;;2.42;;
25922;SDS011;13725;51.170;4.442;2024-01-15T10:19:08;8.52;;;2.22;;
25922;SDS011;13725;51.170;4.442;2024-01-15T10:21:40;7.80;;;2.17;;
25922;SDS011;13725;51.170;4.442;2024-01-15T10:24:06;8.73;;;1.70;;
25922;SDS011;13725;51.170;4.442;2024-01-15T10:26:32;8.75;;;1.52;;
25922;SDS011;13725;51.170;4.442;2024-01-15T10:28:58;8.43;;;1.77;;
25922;SDS011;13725;51.170;4.442;2024-01-15T10:31:25;7.90;;;1.75;;
25922;SDS011;13725;51.170;4.442;2024-01-15T10:33:52;7.85;;;1.90;;
25922;SDS011;13725;51.170;4.442;2024-01-15T10:36:18;6.82;;;1.45;;
25922;SDS011;13725;51.170;4.442;2024-01-15T10:38:44;6.68;;;1.30;;
25922;SDS011;13725;51.170;4.442;2024-01-15T10:41:10;14.15;;;3.10;;
25922;SDS011;13725;51.170;4.442;2024-01-15T10:43:36;10.02;;;1.55;;
25922;SDS011;13725;51.170;4.442;2024-01-15T10:46:02;8.35;;;1.30;;
25922;SDS011;13725;51.170;4.442;2024-01-15T10:48:30;7.50;;;1.35;;
25922;SDS011;13725;51.170;4.442;2024-01-15T10:50:57;7.35;;;1.25;;
25922;SDS011;13725;51.170;4.442;2024-01-15T10:53:25;8.65;;;1.60;;
25922;SDS011;13725;51.170;4.442;2024-01-15T10:55:53;12.38;;;1.60;;
25922;SDS011;13725;51.170;4.442;2024-01-15T10:58:20;6.40;;;1.20;;
25922;SDS011;13725;51.170;4.442;2024-01-15T11:00:48;8.02;;;1.27;;
25922;SDS011;13725;51.170;4.442;2024-01-15T11:03:15;6.53;;;1.17;;
25922;SDS011;13725;51.170;4.442;2024-01-15T11:05:43;12.77;;;1.30;;
25922;SDS011;13725;51.170;4.442;2024-01-15T11:08:09;6.60;;;1.60;;
25922;SDS011;13725;51.170;4.442;2024-01-15T11:13:15;29.20;;;5.25;;
25922;SDS011;13725;51.170;4.442;2024-01-15T11:16:01;10.02;;;1.27;;
25922;SDS011;13725;51.170;4.442;2024-01-15T11:18:29;15.68;;;2.25;;
25922;SDS011;13725;51.170;4.442;2024-01-15T11:24:00;7.07;;;1.25;;
25922;SDS011;13725;51.170;4.442;2024-01-15T11:29:09;10.32;;;1.55;;
25922;SDS011;13725;51.170;4.442;2024-01-15T11:34:20;10.52;;;1.45;;
25922;SDS011;13725;51.170;4.442;2024-01-15T11:41:55;13.60;;;1.83;;
25922;SDS011;13725;51.170;4.442;2024-01-15T11:44:25;10.05;;;1.48;;
25922;SDS011;13725;51.170;4.442;2024-01-15T11:46:58;10.90;;;1.63;;
25922;SDS011;13725;51.170;4.442;2024-01-15T11:52:37;3.30;;;0.55;;
25922;SDS011;13725;51.170;4.442;2024-01-15T11:55:11;6.03;;;1.02;;
25922;SDS011;13725;51.170;4.442;2024-01-15T11:57:53;4.63;;;0.98;;
25922;SDS011;13725;51.170;4.442;2024-01-15T12:00:20;4.63;;;1.00;;
25922;SDS011;13725;51.170;4.442;2024-01-15T12:02:48;10.90;;;1.08;;
25922;SDS011;13725;51.170;4.442;2024-01-15T12:05:17;5.82;;;1.23;;
25922;SDS011;13725;51.170;4.442;2024-01-15T12:07:44;14.80;;;1.88;;
25922;SDS011;13725;51.170;4.442;2024-01-15T12:10:12;11.95;;;1.30;;
25922;SDS011;13725;51.170;4.442;2024-01-15T12:12:58;8.40;;;1.38;;
25922;SDS011;13725;51.170;4.442;2024-01-15T12:15:26;7.55;;;1.20;;
25922;SDS011;13725;51.170;4.442;2024-01-15T12:17:56;9.95;;;1.58;;
25922;SDS011;13725;51.170;4.442;2024-01-15T12:20:26;6.75;;;1.10;;
25922;SDS011;13725;51.170;4.442;2024-01-15T12:22:52;12.13;;;1.80;;
25922;SDS011;13725;51.170;4.442;2024-01-15T12:25:19;8.10;;;1.10;;
25922;SDS011;13725;51.170;4.442;2024-01-15T12:27:45;8.85;;;1.48;;
25922;SDS011;13725;51.170;4.442;2024-01-15T12:30:12;7.38;;;1.33;;
25922;SDS011;13725;51.170;4.442;2024-01-15T12:32:41;5.57;;;1.10;;
25922;SDS011;13725;51.170;4.442;2024-01-15T12:35:07;6.93;;;1.33;;
25922;SDS011;13725;51.170;4.442;2024-01-15T12:37:37;3.88;;;1.02;;
25922;SDS011;13725;51.170;4.442;2024-01-15T12:40:04;2.65;;;0.65;;
25922;SDS011;13725;51.170;4.442;2024-01-15T12:42:41;1.30;;;0.40;;
25922;SDS011;13725;51.170;4.442;2024-01-15T12:45:07;3.22;;;0.47;;
25922;SDS011;13725;51.170;4.442;2024-01-15T12:47:35;1.38;;;0.30;;
25922;SDS011;13725;51.170;4.442;2024-01-15T12:50:02;1.13;;;0.70;;
25922;SDS011;13725;51.170;4.442;2024-01-15T12:52:31;1.98;;;0.40;;
25922;SDS011;13725;51.170;4.442;2024-01-15T12:54:57;0.88;;;0.45;;
25922;SDS011;13725;51.170;4.442;2024-01-15T12:57:23;0.50;;;0.47;;
25922;SDS011;13725;51.170;4.442;2024-01-15T12:59:49;4.53;;;0.70;;
25922;SDS011;13725;51.170;4.442;2024-01-15T13:02:15;1.00;;;0.50;;
25922;SDS011;13725;51.170;4.442;2024-01-15T13:04:42;1.40;;;0.60;;
25922;SDS011;13725;51.170;4.442;2024-01-15T13:07:08;1.13;;;0.65;;
25922;SDS011;13725;51.170;4.442;2024-01-15T13:09:34;2.25;;;0.65;;
25922;SDS011;13725;51.170;4.442;2024-01-15T13:12:01;1.83;;;0.70;;
25922;SDS011;13725;51.170;4.442;2024-01-15T13:14:27;1.63;;;0.70;;
25922;SDS011;13725;51.170;4.442;2024-01-15T13:16:53;1.88;;;0.85;;
25922;SDS011;13725;51.170;4.442;2024-01-15T13:19:20;0.82;;;0.80;;
25922;SDS011;13725;51.170;4.442;2024-01-15T13:21:47;1.33;;;0.50;;
25922;SDS011;13725;51.170;4.442;2024-01-15T13:24:13;1.50;;;0.90;;
25922;SDS011;13725;51.170;4.442;2024-01-15T13:26:39;1.40;;;0.80;;
25922;SDS011;13725;51.170;4.442;2024-01-15T13:29:05;0.90;;;0.90;;
25922;SDS011;13725;51.170;4.442;2024-01-15T13:31:34;1.10;;;0.98;;
25922;SDS011;13725;51.170;4.442;2024-01-15T13:33:59;4.80;;;1.20;;
25922;SDS011;13725;51.170;4.442;2024-01-15T13:36:27;1.75;;;1.05;;
25922;SDS011;13725;51.170;4.442;2024-01-15T13:38:52;8.57;;;1.45;;
25922;SDS011;13725;51.170;4.442;2024-01-15T13:41:19;7.07;;;1.40;;
25922;SDS011;13725;51.170;4.442;2024-01-15T13:43:52;2.38;;;1.00;;
25922;SDS011;13725;51.170;4.442;2024-01-15T13:46:19;2.80;;;0.90;;
25922;SDS011;13725;51.170;4.442;2024-01-15T13:48:45;2.70;;;1.02;;
25922;SDS011;13725;51.170;4.442;2024-01-15T13:51:11;1.45;;;0.70;;
25922;SDS011;13725;51.170;4.442;2024-01-15T13:53:37;1.65;;;0.50;;
25922;SDS011;13725;51.170;4.442;2024-01-15T13:56:03;1.80;;;0.60;;
25922;SDS011;13725;51.170;4.442;2024-01-15T13:58:30;5.68;;;0.90;;
25922;SDS011;13725;51.170;4.442;2024-01-15T14:00:56;5.63;;;1.10;;
25922;SDS011;13725;51.170;4.442;2024-01-15T14:03:22;3.78;;;0.90;;
25922;SDS011;13725;51.170;4.442;2024-01-15T14:05:48;3.50;;;0.70;;
25922;SDS011;13725;51.170;4.442;2024-01-15T14:08:14;6.57;;;1.20;;
25922;SDS011;13725;51.170;4.442;2024-01-15T14:10:40;1.52;;;0.90;;
25922;SDS011;13725;51.170;4.442;2024-01-15T14:13:05;2.17;;;0.80;;
25922;SDS011;13725;51.170;4.442;2024-01-15T14:15:31;5.25;;;1.35;;
25922;SDS011;13725;51.170;4.442;2024-01-15T14:17:57;3.65;;;1.27;;
25922;SDS011;13725;51.170;4.442;2024-01-15T14:20:23;8.70;;;1.27;;
25922;SDS011;13725;51.170;4.442;2024-01-15T14:22:49;3.92;;;1.00;;
25922;SDS011;13725;51.170;4.442;2024-01-15T14:25:15;5.93;;;1.17;;
25922;SDS011;13725;51.170;4.442;2024-01-15T14:27:41;4.43;;;1.52;;
25922;SDS011;13725;51.170;4.442;2024-01-15T14:30:06;4.05;;;1.20;;
25922;SDS011;13725;51.170;4.442;2024-01-15T14:32:34;7.70;;;1.73;;
25922;SDS011;13725;51.170;4.442;2024-01-15T14:34:59;6.28;;;1.58;;
25922;SDS011;13725;51.170;4.442;2024-01-15T14:37:25;5.07;;;1.60;;
25922;SDS011;13725;51.170;4.442;2024-01-15T14:39:51;10.75;;;1.35;;
25922;SDS011;13725;51.170;4.442;2024-01-15T14:42:17;11.65;;;1.60;;
25922;SDS011;13725;51.170;4.442;2024-01-15T14:44:43;8.93;;;1.58;;
25922;SDS011;13725;51.170;4.442;2024-01-15T14:47:08;5.72;;;1.25;;
25922;SDS011;13725;51.170;4.442;2024-01-15T14:49:34;6.35;;;1.40;;
25922;SDS011;13725;51.170;4.442;2024-01-15T14:52:00;5.35;;;1.98;;
25922;SDS011;13725;51.170;4.442;2024-01-15T14:54:26;12.38;;;2.47;;
25922;SDS011;13725;51.170;4.442;2024-01-15T14:56:52;6.00;;;1.70;;
25922;SDS011;13725;51.170;4.442;2024-01-15T14:59:17;8.02;;;1.95;;